Time;durP1;ratioP1;P1;durP2;ratioP2;P2;SDS_P1;SDS_P2;PMS_P1;PMS_P2;Temp;Humidity;BMP_temperature;BMP_pressure;BME280_temperature;BME280_humidity;BME280_pressure;Samples;Min_cycle;Max_cycle;Signal;HPM_P1;HPM_P2
2022/01/12 00:01:05;;;;;;;114.20;45.30;;;;;;;-3.50;93.26;101356.79;103525;1300;22711;-26
2022/01/12 00:03:32;;;;;;;112.10;38.20;;;;;;;-3.49;93.40;101357.98;103604;1300;22824;-29
2022/01/12 00:05:58;;;;;;;98.10;36.80;;;;;;;-3.43;93.60;101360.91;103487;1300;24334;-29
2022/01/12 00:08:26;;;;;;;125.90;39.90;;;;;;;-3.45;93.47;101359.75;103536;1300;24420;-29
2022/01/12 00:10:56;;;;;;;111.10;39.70;;;;;;;-3.43;93.94;101361.09;103508;1300;24243;-26
2022/01/12 00:13:24;;;;;;;93.30;35.90;;;;;;;-3.42;93.53;101362.97;103542;1300;24354;-29
2022/01/12 00:15:51;;;;;;;123.50;37.30;;;;;;;-3.42;93.15;101359.45;103502;1300;24178;-26
2022/01/12 00:18:17;;;;;;;142.90;42.80;;;;;;;-3.38;92.26;101358.09;103541;1300;22524;-29
2022/01/12 00:20:43;;;;;;;121.90;39.30;;;;;;;-3.46;92.16;101354.03;103638;1298;24317;-26
2022/01/12 00:23:09;;;;;;;115.70;38.60;;;;;;;-3.48;92.38;101360.05;103554;1300;24174;-28
2022/01/12 00:33:10;;;;;;;125.70;42.20;;;;;;;-3.52;92.90;101371.02;103628;1300;22743;-26
2022/01/12 00:35:38;;;;;;;105.70;37.20;;;;;;;-3.50;93.22;101370.09;103526;1300;24259;-29
2022/01/12 00:38:03;;;;;;;114.60;36.40;;;;;;;-3.41;93.15;101375.36;103585;1300;24240;-26
2022/01/12 00:40:29;;;;;;;106.60;36.00;;;;;;;-3.43;92.98;101373.35;103543;1300;24211;-28
2022/01/12 00:42:55;;;;;;;114.80;38.30;;;;;;;-3.45;93.05;101373.40;103579;1300;24183;-27
2022/01/12 00:45:21;;;;;;;124.60;37.30;;;;;;;-3.45;92.71;101368.85;103574;1300;24305;-27
2022/01/12 00:47:47;;;;;;;113.00;38.60;;;;;;;-3.48;92.33;101371.61;103569;1300;22522;-27
2022/01/12 00:50:13;;;;;;;106.50;35.10;;;;;;;-3.49;92.34;101373.35;103515;1300;22518;-27
2022/01/12 00:52:39;;;;;;;103.10;35.50;;;;;;;-3.45;91.97;101372.20;103477;1300;24304;-29
2022/01/12 00:55:06;;;;;;;87.10;30.10;;;;;;;-3.37;91.95;101371.35;103591;1300;24229;-25
2022/01/12 00:57:32;;;;;;;90.70;29.00;;;;;;;-3.45;91.94;101372.02;103559;1300;24288;-26
2022/01/12 01:00:01;;;;;;;108.70;37.40;;;;;;;-3.50;92.35;101373.23;103599;1300;24344;-25
2022/01/12 01:02:27;;;;;;;103.70;30.40;;;;;;;-3.50;92.73;101363.80;103640;1300;24216;-29
2022/01/12 01:04:53;;;;;;;106.50;36.70;;;;;;;-3.44;92.99;101366.73;103511;1300;24331;-24
2022/01/12 01:07:19;;;;;;;121.70;45.40;;;;;;;-3.37;92.84;101367.67;103519;1301;24301;-28
2022/01/12 01:09:54;;;;;;;104.60;38.80;;;;;;;-3.34;92.51;101374.71;103550;1300;24230;-29
2022/01/12 01:12:20;;;;;;;125.20;36.60;;;;;;;-3.37;92.57;101367.86;103539;1300;24338;-26
2022/01/12 01:15:00;;;;;;;127.30;36.70;;;;;;;-3.45;92.13;101368.30;103593;1300;24253;-30
2022/01/12 01:27:23;;;;;;;89.40;31.20;;;;;;;-3.55;93.06;101366.77;103580;1300;24471;-31
2022/01/12 01:29:52;;;;;;;94.20;30.00;;;;;;;-3.49;93.22;101365.48;103562;1300;24182;-28
2022/01/12 01:32:18;;;;;;;110.50;34.80;;;;;;;-3.48;92.38;101363.55;103575;1300;24210;-28
2022/01/12 01:34:47;;;;;;;95.20;35.30;;;;;;;-3.56;91.87;101357.90;103547;1300;24461;-30
2022/01/12 01:37:13;;;;;;;100.70;33.80;;;;;;;-3.71;92.16;101357.44;103580;1300;25391;-30
2022/01/12 01:39:39;;;;;;;108.30;34.30;;;;;;;-3.70;92.75;101354.58;103623;1300;24222;-27
2022/01/12 01:42:15;;;;;;;111.10;35.10;;;;;;;-3.66;93.40;101353.17;103650;1300;22502;-30
2022/01/12 01:54:55;;;;;;;85.00;25.00;;;;;;;-3.75;93.60;101365.09;103489;1300;24254;-27
2022/01/12 01:57:21;;;;;;;98.40;28.70;;;;;;;-3.88;93.31;101376.25;103470;1300;24450;-26
2022/01/12 01:59:47;;;;;;;93.20;29.00;;;;;;;-3.87;93.39;101374.80;103600;1300;22843;-28
2022/01/12 02:02:13;;;;;;;98.60;33.20;;;;;;;-3.86;92.70;101371.23;103565;1299;24276;-26
2022/01/12 02:04:39;;;;;;;82.20;30.50;;;;;;;-3.89;92.51;101361.92;103510;1300;24436;-29
2022/01/12 02:07:05;;;;;;;94.90;27.10;;;;;;;-3.99;92.56;101364.38;103599;1300;22513;-25
2022/01/12 02:09:31;;;;;;;82.50;26.50;;;;;;;-4.17;94.09;101368.34;103467;1300;24136;-28
2022/01/12 02:11:57;;;;;;;88.90;28.50;;;;;;;-4.10;94.37;101364.59;103464;1300;24311;-25
2022/01/12 02:14:24;;;;;;;92.20;27.30;;;;;;;-4.05;95.03;101354.63;103535;1300;24296;-25
2022/01/12 02:16:57;;;;;;;72.70;24.70;;;;;;;-3.96;94.50;101357.10;103569;1300;23891;-29
2022/01/12 02:41:49;;;;;;;87.40;28.70;;;;;;;-4.17;93.72;101352.98;103612;1300;24230;-29
2022/01/12 02:54:14;;;;;;;82.70;25.80;;;;;;;-4.26;94.42;101358.52;103679;1300;24200;-27
2022/01/12 02:56:40;;;;;;;78.00;26.70;;;;;;;-4.33;94.43;101354.20;103626;1300;24169;-29
2022/01/12 02:59:09;;;;;;;65.80;24.20;;;;;;;-4.29;94.25;101355.83;103556;1300;24384;-29
2022/01/12 03:02:01;;;;;;;66.50;23.30;;;;;;;-4.42;95.00;101356.83;103561;1300;24307;-29
2022/01/12 03:04:20;;;;;;;65.10;22.50;;;;;;;-4.28;94.69;101359.83;103571;1300;24413;-29
2022/01/12 03:06:46;;;;;;;82.90;27.10;;;;;;;-4.10;93.14;101359.52;103654;1300;24239;-29
2022/01/12 03:09:13;;;;;;;76.90;22.10;;;;;;;-4.50;93.83;101364.25;103683;1300;24193;-31
2022/01/12 03:11:39;;;;;;;72.70;26.00;;;;;;;-4.48;94.77;101365.94;103588;1300;24201;-26
2022/01/12 03:14:05;;;;;;;49.40;23.10;;;;;;;-4.26;93.90;101365.68;103612;1300;24312;-27
2022/01/12 03:16:33;;;;;;;78.00;28.80;;;;;;;-4.26;93.70;101369.19;103618;1300;24266;-26
2022/01/12 03:19:00;;;;;;;81.00;25.80;;;;;;;-4.33;93.81;101365.08;103660;1300;24250;-25
2022/01/12 03:21:28;;;;;;;82.70;27.40;;;;;;;-4.48;94.25;101364.52;103746;1300;24216;-29
2022/01/12 03:23:54;;;;;;;92.90;22.80;;;;;;;-4.56;94.92;101359.56;103644;1300;24225;-29
2022/01/12 03:26:21;;;;;;;82.00;24.80;;;;;;;-4.53;96.13;101361.57;103638;1300;26196;-28
2022/01/12 03:28:52;;;;;;;79.40;26.10;;;;;;;-4.39;96.27;101355.13;103562;1300;24355;-27
2022/01/12 03:31:21;;;;;;;81.80;27.80;;;;;;;-4.47;95.70;101358.90;103564;1300;22846;-26
2022/01/12 03:33:54;;;;;;;60.00;21.90;;;;;;;-4.67;96.20;101362.73;103627;1300;24232;-26
2022/01/12 03:38:51;;;;;;;75.40;26.70;;;;;;;-4.54;95.98;101362.63;103599;1300;24174;-25
2022/01/12 03:41:17;;;;;;;85.20;27.60;;;;;;;-4.56;96.73;101359.39;103564;1300;22755;-29
2022/01/12 03:43:43;;;;;;;88.60;27.20;;;;;;;-4.76;96.97;101366.52;103569;1300;22527;-29
2022/01/12 03:46:10;;;;;;;77.40;26.80;;;;;;;-4.75;97.07;101363.16;103675;1300;24385;-27
2022/01/12 03:48:35;;;;;;;90.20;29.40;;;;;;;-4.53;95.95;101354.05;103540;1300;24223;-26
2022/01/12 03:51:01;;;;;;;81.20;23.50;;;;;;;-4.55;95.52;101346.25;103611;1300;24168;-28
2022/01/12 03:53:28;;;;;;;87.70;27.90;;;;;;;-4.56;95.91;101342.95;103500;1300;22662;-30
2022/01/12 03:55:53;;;;;;;56.80;20.90;;;;;;;-4.57;96.30;101345.80;103608;1300;24222;-28
2022/01/12 03:58:19;;;;;;;75.60;23.70;;;;;;;-4.53;96.50;101346.16;103557;1300;24257;-25
2022/01/12 04:00:46;;;;;;;78.80;25.10;;;;;;;-4.40;95.84;101343.64;103597;1300;24214;-28
2022/01/12 04:03:13;;;;;;;66.00;23.10;;;;;;;-4.37;95.04;101341.79;103545;1300;22910;-25
2022/01/12 04:10:36;;;;;;;74.00;25.00;;;;;;;-4.43;95.14;101339.02;103229;1300;442104;-26
2022/01/12 04:13:01;;;;;;;71.30;24.80;;;;;;;-4.44;95.99;101344.45;103610;1302;24214;-28
2022/01/12 04:15:27;;;;;;;46.10;15.30;;;;;;;-4.48;96.02;101345.66;103609;1300;22508;-27
2022/01/12 04:17:53;;;;;;;63.00;23.20;;;;;;;-4.56;96.12;101352.23;103532;1300;24219;-27
2022/01/12 04:20:19;;;;;;;44.30;14.50;;;;;;;-4.49;95.90;101357.75;103541;1300;24250;-28
2022/01/12 04:25:14;;;;;;;73.10;21.60;;;;;;;-4.59;95.83;101348.48;103483;1300;25338;-29
2022/01/12 04:27:40;;;;;;;71.50;26.50;;;;;;;-4.50;95.85;101348.02;103536;1302;24095;-26
2022/01/12 04:30:07;;;;;;;63.60;22.80;;;;;;;-4.39;94.92;101349.89;103558;1300;24266;-26
2022/01/12 04:32:37;;;;;;;78.20;24.40;;;;;;;-4.55;95.13;101350.63;103589;1300;24260;-26
2022/01/12 04:35:04;;;;;;;66.40;24.10;;;;;;;-4.31;94.60;101352.06;103477;1301;24167;-26
2022/01/12 04:37:30;;;;;;;64.00;24.60;;;;;;;-4.53;94.80;101351.26;103508;1301;24299;-30
2022/01/12 04:39:56;;;;;;;44.70;12.50;;;;;;;-4.23;94.30;101351.77;103611;1300;24193;-27
2022/01/12 04:42:22;;;;;;;68.50;23.20;;;;;;;-4.45;94.00;101350.64;103584;1300;24331;-26
2022/01/12 04:44:49;;;;;;;74.70;27.50;;;;;;;-4.81;96.12;101351.48;103583;1300;24193;-27
2022/01/12 04:47:28;;;;;;;72.40;26.80;;;;;;;-4.92;97.32;101358.83;103535;1300;22950;-25
2022/01/12 04:49:56;;;;;;;85.70;26.80;;;;;;;-4.85;97.35;101354.92;103560;1300;24231;-29
2022/01/12 04:52:22;;;;;;;57.40;21.20;;;;;;;-4.72;97.50;101359.39;103560;1301;23040;-25
2022/01/12 04:54:48;;;;;;;42.20;13.00;;;;;;;-4.39;96.03;101353.03;103620;1300;24186;-25
2022/01/12 04:57:14;;;;;;;70.90;25.30;;;;;;;-4.45;95.06;101357.95;103525;1300;22870;-25
2022/01/12 04:59:54;;;;;;;44.30;17.90;;;;;;;-4.65;95.95;101351.48;103530;1302;24233;-28
2022/01/12 05:10:02;;;;;;;76.90;25.10;;;;;;;-4.51;96.82;101349.62;103549;1300;22510;-25
2022/01/12 05:15:07;;;;;;;84.60;27.60;;;;;;;-4.75;96.61;101363.34;103582;1300;22603;-30
2022/01/12 05:17:34;;;;;;;55.80;22.60;;;;;;;-4.64;96.40;101359.47;103624;1300;24323;-25
2022/01/12 05:20:01;;;;;;;69.90;24.40;;;;;;;-4.64;96.05;101360.52;103641;1300;24182;-28
2022/01/12 05:22:27;;;;;;;63.60;23.30;;;;;;;-4.56;96.64;101352.41;103643;1300;24306;-30
2022/01/12 05:24:52;;;;;;;67.50;23.00;;;;;;;-4.45;96.06;101346.41;103696;1299;24301;-25
2022/01/12 05:27:19;;;;;;;72.10;25.80;;;;;;;-4.42;95.73;101349.48;103572;1300;24198;-26
2022/01/12 05:29:45;;;;;;;60.70;21.80;;;;;;;-4.41;95.52;101350.65;103576;1299;24179;-27
2022/01/12 05:32:11;;;;;;;70.40;18.90;;;;;;;-4.47;95.66;101353.32;103669;1300;24603;-24
2022/01/12 05:34:38;;;;;;;87.40;27.20;;;;;;;-4.24;95.03;101347.46;103559;1300;24252;-25
2022/01/12 05:37:04;;;;;;;77.60;25.80;;;;;;;-4.45;95.68;101353.42;103717;1300;23884;-30
2022/01/12 05:39:30;;;;;;;70.00;25.00;;;;;;;-4.45;95.88;101366.34;103650;1300;24332;-25
2022/01/12 05:41:56;;;;;;;71.90;27.40;;;;;;;-4.46;95.81;101373.22;103703;1300;24211;-26
2022/01/12 05:44:23;;;;;;;69.10;27.30;;;;;;;-4.40;95.69;101366.37;103570;1300;24423;-27
2022/01/12 05:46:49;;;;;;;69.40;26.70;;;;;;;-4.31;95.54;101364.45;103720;1300;24152;-29
2022/01/12 05:51:44;;;;;;;68.50;22.10;;;;;;;-4.17;95.65;101366.09;103596;1300;24319;-26
2022/01/12 05:54:10;;;;;;;69.10;22.80;;;;;;;-4.17;95.47;101373.44;103574;1300;22518;-28
2022/01/12 05:56:36;;;;;;;87.20;26.50;;;;;;;-4.46;95.68;101381.77;103514;1300;22623;-31
2022/01/12 05:59:02;;;;;;;86.70;27.70;;;;;;;-4.38;95.92;101377.98;103593;1300;24432;-28
2022/01/12 06:01:28;;;;;;;67.90;27.10;;;;;;;-4.20;95.72;101371.78;103507;1299;24170;-30
2022/01/12 06:03:54;;;;;;;86.80;27.40;;;;;;;-4.24;96.14;101374.19;103586;1300;24207;-30
2022/01/12 06:06:20;;;;;;;73.10;27.20;;;;;;;-4.20;95.88;101377.36;103600;1300;22520;-26
2022/01/12 06:08:47;;;;;;;86.00;28.00;;;;;;;-4.16;95.78;101374.61;103620;1300;24322;-31
2022/01/12 06:11:12;;;;;;;76.10;26.80;;;;;;;-4.08;95.09;101375.74;103565;1300;24153;-30
2022/01/12 06:13:38;;;;;;;79.10;26.70;;;;;;;-4.02;94.39;101381.29;103571;1300;22641;-30
2022/01/12 06:16:04;;;;;;;72.80;23.10;;;;;;;-4.11;95.15;101387.58;103553;1300;24249;-29
2022/01/12 06:18:30;;;;;;;87.80;28.20;;;;;;;-4.06;94.65;101382.83;103559;1300;24363;-25
2022/01/12 06:20:56;;;;;;;75.80;25.20;;;;;;;-4.23;95.17;101395.15;103557;1300;24317;-29
2022/01/12 06:23:22;;;;;;;75.30;26.00;;;;;;;-4.36;95.60;101399.60;103560;1300;24216;-25
2022/01/12 06:25:48;;;;;;;68.80;27.20;;;;;;;-4.43;96.04;101400.73;103579;1300;24181;-29
2022/01/12 06:33:12;;;;;;;91.00;27.10;;;;;;;-4.20;95.23;101391.02;103593;1300;22523;-30
2022/01/12 06:35:38;;;;;;;83.30;27.80;;;;;;;-4.15;95.97;101393.66;103641;1300;22512;-26
2022/01/12 06:38:04;;;;;;;94.40;32.60;;;;;;;-4.26;95.75;101399.61;103625;1299;24284;-26
2022/01/12 06:40:30;;;;;;;70.50;27.10;;;;;;;-4.38;95.87;101407.54;103588;1300;24430;-29
2022/01/12 06:42:56;;;;;;;62.20;24.10;;;;;;;-4.40;96.41;101410.25;103558;1300;24191;-26
2022/01/12 06:45:22;;;;;;;74.30;24.20;;;;;;;-4.25;96.10;101409.05;103591;1300;24205;-28
2022/01/12 06:47:47;;;;;;;86.60;30.10;;;;;;;-4.17;96.33;101407.73;103599;1300;24222;-27
2022/01/12 06:50:13;;;;;;;80.30;29.30;;;;;;;-4.19;96.00;101414.41;103620;1299;22776;-28
2022/01/12 06:52:39;;;;;;;73.00;24.30;;;;;;;-4.25;96.21;101424.62;103643;1300;24297;-26
2022/01/12 06:55:06;;;;;;;74.80;23.50;;;;;;;-4.10;96.94;101426.02;103565;1300;24309;-31
2022/01/12 06:57:32;;;;;;;95.10;28.20;;;;;;;-3.80;95.92;101427.40;103460;1303;24175;-30
2022/01/12 06:59:58;;;;;;;72.80;26.40;;;;;;;-3.82;95.56;101423.11;103611;1300;24204;-29
2022/01/12 07:02:23;;;;;;;67.60;26.90;;;;;;;-3.74;95.01;101420.53;103541;1300;24331;-29
2022/01/12 07:04:50;;;;;;;82.00;24.10;;;;;;;-3.83;94.94;101425.08;103526;1300;24218;-25
2022/01/12 07:07:15;;;;;;;64.40;24.10;;;;;;;-3.87;95.51;101428.70;103593;1300;24326;-26
2022/01/12 07:09:42;;;;;;;82.00;30.40;;;;;;;-3.86;95.61;101428.83;103626;1300;24636;-29
2022/01/12 07:12:09;;;;;;;88.50;26.90;;;;;;;-3.88;95.14;101429.27;103618;1300;24349;-26
2022/01/12 07:14:34;;;;;;;82.40;28.20;;;;;;;-3.70;95.14;101432.30;103596;1300;24184;-26
2022/01/12 07:17:00;;;;;;;75.70;24.60;;;;;;;-3.70;94.88;101439.27;103698;1300;24340;-29
2022/01/12 07:19:26;;;;;;;77.30;26.70;;;;;;;-3.65;95.27;101437.70;103581;1300;24318;-26
2022/01/12 07:21:52;;;;;;;87.90;25.50;;;;;;;-3.71;94.56;101443.17;103468;1300;24219;-29
2022/01/12 07:24:18;;;;;;;72.90;24.50;;;;;;;-3.84;94.47;101444.34;103564;1302;24351;-26
2022/01/12 07:26:46;;;;;;;59.70;25.90;;;;;;;-3.70;94.23;101442.11;103501;1300;24305;-29
2022/01/12 07:29:12;;;;;;;86.10;27.00;;;;;;;-3.73;94.47;101439.42;103561;1300;24217;-29
2022/01/12 07:31:38;;;;;;;65.30;26.60;;;;;;;-3.62;95.33;101435.83;103512;1300;24352;-29
2022/01/12 07:34:04;;;;;;;91.70;26.90;;;;;;;-3.44;95.25;101429.39;103570;1300;24216;-25
2022/01/12 07:36:29;;;;;;;72.40;26.00;;;;;;;-3.39;94.87;101426.60;103561;1301;24214;-28
2022/01/12 07:38:55;;;;;;;73.80;27.10;;;;;;;-3.31;94.79;101422.08;103541;1300;24270;-29
2022/01/12 07:41:22;;;;;;;92.20;28.80;;;;;;;-3.21;94.03;101427.48;103530;1300;24222;-26
2022/01/12 07:43:47;;;;;;;72.50;26.10;;;;;;;-3.24;93.81;101432.00;103543;1300;24454;-26
2022/01/12 07:46:13;;;;;;;73.80;26.40;;;;;;;-3.23;93.87;101438.45;103585;1300;24173;-26
2022/01/12 07:48:39;;;;;;;74.80;27.40;;;;;;;-3.03;93.41;101439.95;103530;1301;24244;-28
2022/01/12 07:51:05;;;;;;;61.60;23.10;;;;;;;-3.13;93.37;101451.88;103531;1300;24249;-29
2022/01/12 07:53:31;;;;;;;88.20;30.30;;;;;;;-3.07;93.31;101450.45;103526;1300;24356;-27
2022/01/12 07:55:57;;;;;;;76.50;29.70;;;;;;;-2.93;93.17;101446.21;103543;1300;24313;-29
2022/01/12 07:58:23;;;;;;;81.30;26.50;;;;;;;-3.01;92.76;101435.31;103529;1300;24189;-29
2022/01/12 08:00:49;;;;;;;67.30;26.90;;;;;;;-3.02;92.17;101431.65;103483;1300;24255;-29
2022/01/12 08:03:15;;;;;;;72.80;27.60;;;;;;;-3.05;91.43;101430.56;103505;1302;24372;-26
2022/01/12 08:05:44;;;;;;;72.10;26.30;;;;;;;-3.04;91.47;101428.94;103548;1302;24180;-24
2022/01/12 08:08:10;;;;;;;68.20;23.60;;;;;;;-3.20;91.43;101422.19;103557;1300;24341;-25
2022/01/12 08:10:36;;;;;;;73.90;24.20;;;;;;;-3.13;91.53;101419.45;103529;1300;24198;-29
2022/01/12 08:13:02;;;;;;;79.80;26.30;;;;;;;-3.06;91.99;101421.29;103541;1300;24311;-27
2022/01/12 08:15:28;;;;;;;95.20;28.20;;;;;;;-2.92;91.47;101424.42;103535;1300;24208;-25
2022/01/12 08:17:54;;;;;;;75.30;25.30;;;;;;;-3.00;91.90;101424.91;103535;1300;24311;-25
2022/01/12 08:20:25;;;;;;;37.80;16.50;;;;;;;-2.94;91.15;101424.15;103521;1302;24335;-28
2022/01/12 08:22:52;;;;;;;58.90;19.20;;;;;;;-3.05;90.53;101431.41;103562;1300;24292;-31
2022/01/12 08:25:18;;;;;;;78.40;27.50;;;;;;;-2.89;89.58;101429.57;103639;1300;24329;-31
2022/01/12 08:27:43;;;;;;;54.20;20.10;;;;;;;-3.21;90.94;101436.08;103464;1300;24205;-29
2022/01/12 08:30:16;;;;;;;75.60;22.30;;;;;;;-3.11;91.51;101435.52;103517;1302;24327;-28
2022/01/12 08:32:47;;;;;;;88.80;27.10;;;;;;;-3.06;91.35;101439.88;103522;1300;24214;-25
2022/01/12 08:35:13;;;;;;;42.60;16.70;;;;;;;-3.02;92.36;101444.08;103538;1300;24348;-29
2022/01/12 08:37:39;;;;;;;83.00;26.10;;;;;;;-2.95;91.79;101442.10;103435;1300;24663;-29
2022/01/12 08:40:06;;;;;;;88.20;31.50;;;;;;;-2.95;90.53;101440.86;103568;1300;24178;-26
2022/01/12 08:42:32;;;;;;;69.80;22.90;;;;;;;-2.77;90.02;101440.11;103617;1300;24136;-26
2022/01/12 08:44:59;;;;;;;73.10;25.20;;;;;;;-2.65;88.71;101437.90;103586;1300;25103;-25
2022/01/12 08:47:26;;;;;;;72.50;27.10;;;;;;;-2.83;89.65;101446.69;103589;1300;24385;-30
2022/01/12 08:49:52;;;;;;;113.90;37.00;;;;;;;-2.90;91.18;101445.02;103486;1299;24289;-26
2022/01/12 08:52:18;;;;;;;75.00;23.40;;;;;;;-2.82;91.61;101447.85;103617;1300;22521;-29
2022/01/12 08:54:44;;;;;;;78.90;29.10;;;;;;;-2.62;90.41;101446.58;103425;1300;24472;-29
2022/01/12 08:57:10;;;;;;;107.50;32.30;;;;;;;-2.60;89.93;101451.58;103570;1302;24237;-28
2022/01/12 08:59:36;;;;;;;70.30;25.10;;;;;;;-2.52;88.41;101444.02;103552;1302;24308;-30
2022/01/12 09:02:02;;;;;;;81.20;26.80;;;;;;;-2.67;89.13;101435.36;103625;1302;24424;-30
2022/01/12 09:04:28;;;;;;;74.80;22.10;;;;;;;-2.73;88.95;101441.04;103595;1302;24191;-27
2022/01/12 09:06:55;;;;;;;112.50;34.10;;;;;;;-2.72;90.03;101439.58;103584;1300;24175;-26
2022/01/12 09:09:22;;;;;;;93.80;30.00;;;;;;;-2.68;91.17;101432.04;103600;1301;24208;-31
2022/01/12 09:11:48;;;;;;;91.30;30.40;;;;;;;-2.51;90.99;101422.40;103652;1300;24310;-25
2022/01/12 09:14:15;;;;;;;74.80;29.50;;;;;;;-2.35;90.10;101423.14;103567;1300;24331;-29
2022/01/12 09:16:41;;;;;;;61.00;25.60;;;;;;;-2.37;89.57;101421.83;103533;1300;24183;-27
2022/01/12 09:19:09;;;;;;;73.80;28.30;;;;;;;-2.26;88.77;101424.17;103565;1301;24364;-27
2022/01/12 09:21:35;;;;;;;94.40;32.60;;;;;;;-2.43;88.57;101423.83;103534;1302;24240;-27
2022/01/12 09:24:02;;;;;;;91.30;30.30;;;;;;;-2.46;88.99;101422.74;103550;1301;24183;-27
2022/01/12 09:26:28;;;;;;;80.70;28.60;;;;;;;-2.36;89.40;101414.09;103534;1300;22620;-27
2022/01/12 09:28:54;;;;;;;42.60;16.50;;;;;;;-2.25;88.71;101410.31;103530;1302;24224;-30
2022/01/12 09:31:19;;;;;;;66.90;25.60;;;;;;;-2.37;87.76;101411.33;103519;1300;24224;-24
2022/01/12 09:33:49;;;;;;;67.70;24.40;;;;;;;-2.51;87.65;101410.50;103580;1301;24226;-26
2022/01/12 09:36:16;;;;;;;63.70;25.60;;;;;;;-2.46;88.18;101413.11;103591;1303;22727;-28
2022/01/12 09:38:41;;;;;;;49.10;21.00;;;;;;;-2.33;87.47;101411.86;103416;1301;24275;-27
2022/01/12 09:41:07;;;;;;;58.20;19.10;;;;;;;-2.30;86.57;101407.51;103518;1300;22510;-26
2022/01/12 09:43:36;;;;;;;65.40;23.10;;;;;;;-2.19;85.87;101401.59;103502;1300;24176;-29
2022/01/12 09:46:02;;;;;;;105.00;30.90;;;;;;;-2.24;85.60;101402.52;103566;1302;22563;-30
2022/01/12 09:48:33;;;;;;;84.00;26.20;;;;;;;-2.07;86.29;101403.20;103568;1301;24327;-26
2022/01/12 09:51:01;;;;;;;71.50;26.20;;;;;;;-2.04;85.50;101400.96;103539;1302;24198;-25
2022/01/12 09:53:28;;;;;;;87.60;31.60;;;;;;;-1.93;85.66;101387.63;103585;1302;24410;-26
2022/01/12 09:55:55;;;;;;;70.20;26.20;;;;;;;-1.70;84.39;101386.27;103511;1300;24260;-29
2022/01/12 09:58:21;;;;;;;58.20;24.70;;;;;;;-1.62;85.10;101375.88;103605;1300;24312;-26
2022/01/12 10:00:53;;;;;;;67.10;26.00;;;;;;;-1.36;85.38;101371.20;103476;1302;22525;-29
2022/01/12 10:03:20;;;;;;;56.90;19.20;;;;;;;-1.24;83.50;101374.14;103581;1300;24089;-25
2022/01/12 10:05:46;;;;;;;74.20;26.00;;;;;;;-1.29;83.13;101380.34;103534;1302;24239;-25
2022/01/12 10:08:13;;;;;;;59.70;17.40;;;;;;;-0.86;83.49;101383.23;103545;1300;23034;-27
2022/01/12 10:10:40;;;;;;;69.00;25.40;;;;;;;-0.37;80.38;101381.11;103490;1300;22589;-26
2022/01/12 10:13:16;;;;;;;49.00;20.30;;;;;;;-0.47;80.04;101385.16;103585;1300;24342;-29
2022/01/12 10:15:42;;;;;;;55.10;22.20;;;;;;;-0.32;80.25;101384.73;103526;1300;22644;-30
2022/01/12 10:18:09;;;;;;;50.40;18.10;;;;;;;-0.47;75.76;101382.66;103546;1301;24175;-29
2022/01/12 10:20:43;;;;;;;50.70;20.00;;;;;;;-0.45;74.59;101379.24;103565;1300;24216;-28
2022/01/12 10:23:11;;;;;;;68.00;22.70;;;;;;;-0.56;74.72;101379.08;103514;1300;24332;-25
2022/01/12 10:25:37;;;;;;;47.70;19.20;;;;;;;-0.73;75.34;101377.49;103453;1301;24282;-27
2022/01/12 10:28:10;;;;;;;44.10;18.00;;;;;;;-0.61;74.68;101373.35;103479;1302;24364;-25
2022/01/12 10:30:37;;;;;;;47.70;20.10;;;;;;;-0.44;74.04;101367.21;103505;1301;26150;-29
2022/01/12 10:33:04;;;;;;;35.90;13.80;;;;;;;-0.68;74.36;101371.40;103517;1300;24186;-29
2022/01/12 10:35:32;;;;;;;54.50;18.80;;;;;;;-0.92;74.63;101372.44;103567;1303;24228;-29
2022/01/12 10:38:04;;;;;;;48.20;17.50;;;;;;;-1.02;73.70;101370.11;103531;1302;23952;-28
2022/01/12 10:40:30;;;;;;;56.80;19.50;;;;;;;-0.93;74.08;101369.67;103557;1300;24252;-26
2022/01/12 10:42:56;;;;;;;42.80;15.00;;;;;;;-0.98;73.90;101378.02;103520;1300;24176;-26
2022/01/12 10:45:22;;;;;;;25.90;13.40;;;;;;;-1.05;74.12;101388.52;103546;1300;24328;-27
2022/01/12 10:47:48;;;;;;;48.60;17.00;;;;;;;-1.12;74.07;101386.22;103484;1302;24206;-27
2022/01/12 10:50:14;;;;;;;40.20;16.50;;;;;;;-1.03;74.18;101388.22;103561;1302;24341;-25
2022/01/12 10:52:48;;;;;;;27.80;11.90;;;;;;;-0.99;72.48;101384.56;103581;1300;24225;-25
2022/01/12 10:55:17;;;;;;;23.70;10.30;;;;;;;-1.17;73.84;101373.45;103537;1302;24174;-27
2022/01/12 10:57:44;;;;;;;34.70;14.60;;;;;;;-1.36;74.69;101354.84;103530;1300;22885;-26
2022/01/12 11:02:43;;;;;;;72.60;9.60;;;;;;;-1.35;75.04;101366.94;103482;1300;24336;-25
2022/01/12 11:05:09;;;;;;;32.60;10.90;;;;;;;-1.38;74.46;101370.58;103597;1302;24413;-25
2022/01/12 11:07:35;;;;;;;20.60;7.10;;;;;;;-1.43;74.91;101371.34;103504;1302;24215;-27
2022/01/12 11:10:03;;;;;;;36.30;13.80;;;;;;;-1.40;75.34;101371.21;103421;1301;24340;-28
2022/01/12 11:12:29;;;;;;;30.50;13.90;;;;;;;-1.27;74.83;101371.99;103534;1302;22977;-26
2022/01/12 11:14:55;;;;;;;35.70;18.50;;;;;;;-1.26;74.97;101371.59;103575;1302;24468;-26
2022/01/12 11:17:21;;;;;;;51.00;19.00;;;;;;;-1.14;72.83;101366.30;103509;1300;24174;-28
2022/01/12 11:19:57;;;;;;;41.70;16.00;;;;;;;-1.50;74.72;101362.33;103543;1299;24212;-28
2022/01/12 11:22:28;;;;;;;49.50;17.10;;;;;;;-1.39;75.63;101359.36;103567;1300;22670;-28
2022/01/12 11:24:56;;;;;;;55.00;18.50;;;;;;;-1.08;75.19;101358.78;103494;1302;24229;-31
2022/01/12 11:27:23;;;;;;;45.10;18.40;;;;;;;-0.52;73.87;101358.33;103525;1300;22617;-29
2022/01/12 11:29:49;;;;;;;41.50;15.30;;;;;;;-0.20;73.78;101355.63;103512;1300;24338;-29
2022/01/12 11:32:21;;;;;;;50.40;18.00;;;;;;;0.12;73.19;101347.45;103499;1302;24200;-28
2022/01/12 11:34:58;;;;;;;45.60;19.80;;;;;;;0.31;74.13;101339.86;103617;1300;24344;-29
2022/01/12 11:37:25;;;;;;;52.50;17.80;;;;;;;0.47;70.65;101337.59;103625;1302;24275;-25
2022/01/12 11:39:51;;;;;;;45.80;19.20;;;;;;;-0.01;70.29;101335.61;103514;1300;22509;-25
2022/01/12 11:42:18;;;;;;;41.30;8.20;;;;;;;0.18;71.72;101328.96;103519;1302;24269;-29
2022/01/12 11:44:44;;;;;;;45.70;15.90;;;;;;;0.53;68.93;101321.92;103531;1300;24213;-28
2022/01/12 11:47:12;;;;;;;37.80;17.50;;;;;;;0.93;69.01;101322.51;103525;1300;22724;-28
2022/01/12 11:49:42;;;;;;;28.50;11.40;;;;;;;1.32;67.30;101323.79;103532;1302;23846;-26
2022/01/12 11:52:13;;;;;;;39.60;11.10;;;;;;;1.25;65.64;101329.48;103557;1300;22588;-29
2022/01/12 11:54:43;;;;;;;35.40;12.00;;;;;;;1.13;65.80;101330.16;103590;1300;24313;-25
2022/01/12 11:57:11;;;;;;;30.70;8.50;;;;;;;1.51;64.65;101333.12;103526;1301;22724;-25
2022/01/12 11:59:44;;;;;;;31.70;12.70;;;;;;;1.12;63.23;101332.17;103562;1300;24322;-26
2022/01/12 12:02:12;;;;;;;33.30;15.30;;;;;;;0.57;66.43;101329.63;103537;1302;22557;-28
2022/01/12 12:04:37;;;;;;;39.90;16.20;;;;;;;0.39;67.46;101312.34;103591;1300;24199;-25
2022/01/12 12:07:07;;;;;;;32.40;12.10;;;;;;;0.44;66.76;101315.23;103617;1302;24216;-26
2022/01/12 12:09:37;;;;;;;25.40;12.50;;;;;;;0.31;64.20;101316.98;103098;1302;633675;-25
2022/01/12 12:12:14;;;;;;;26.60;12.10;;;;;;;0.86;64.74;101314.77;103488;1302;22521;-28
2022/01/12 12:14:40;;;;;;;28.40;14.10;;;;;;;0.73;63.69;101312.70;103577;1301;24290;-31
2022/01/12 12:17:07;;;;;;;36.40;14.20;;;;;;;1.54;62.55;101302.02;103557;1300;24305;-25
2022/01/12 12:19:37;;;;;;;24.90;12.10;;;;;;;1.56;63.49;101293.60;103550;1300;22698;-29
2022/01/12 12:22:08;;;;;;;26.40;13.80;;;;;;;1.72;63.69;101297.55;103499;1300;24200;-29
2022/01/12 12:24:34;;;;;;;30.00;14.40;;;;;;;1.96;62.46;101294.35;103616;1300;22794;-25
2022/01/12 12:27:00;;;;;;;32.00;12.90;;;;;;;2.16;62.35;101286.17;103548;1300;24223;-25
2022/01/12 12:29:26;;;;;;;30.20;12.30;;;;;;;2.00;62.24;101284.17;103612;1300;24428;-28
2022/01/12 12:31:53;;;;;;;24.50;6.20;;;;;;;2.48;63.34;101282.02;103556;1299;24452;-25